Americus, Missouri
Current Conditions -  °F | °C
As of 2:35 AM on Thursday 27 Nov 2014 (Local Time) from KFYG Reporting Station
Overcast Overcast  
Wind Chill: 23°   Ceiling: 1400
Heat Index: 32°   Visibility: 8mi
Dew Point: 28°   Wind: 13mph
Humidity: 87%   Direction: 320°NW
Pressure: 30.35"   Gusts: NA
Location:  38.7604°N, 91.5317°W
Report Text: KFYG 270835Z AUTO 32011KT 8SM BKN014 OVC018 00/M02 A3035 RMK AO2
Loading
Personal Weather Stations






























Interactive Weather Map New forecast layout! Learn more

10-Day Weather Forecast

Advertisements
Track Severe Weather on mobile